CheckWX is a tool to help pilots better visualize weather data.  It is not intended as a substitute for an official pre-flight weather briefing.

07:23:56 UTC

KBHB METAR
Hancock County-Bar Harbor Airport
Bar Harbor, Maine, USA
Current

28 mins ago

KBHB 260656Z AUTO 00000KT 10SM SCT080 OVC090 01/M01 A2995 RMK AO2 SLP144 T00061006 FZRANO
Observed
Feb-26 @ 06:56 UTC
Visibility
10 SM
Flight Rules
VFR
Cloud Levels
  • Scattered at 8,000' AGL
  • Overcast at 9,000' AGL
Temperature
C / 34°F
Dewpoint
-1°C / 30°F
Humidity
87%
Altimeter
29.95" Hg
Pressure
1014.22 hPa
Previous

1 hour ago

KBHB 260556Z AUTO 00000KT 10SM OVC090 01/00 A2994 RMK AO2 SLP141 T00110000 10033 20011 58001 FZRANO
Observed
Feb-26 @ 05:56 UTC
Visibility
10 SM
Flight Rules
VFR
Cloud Levels
  • Overcast at 9,000' AGL
Temperature
C / 34°F
Dewpoint
C / 32°F
Humidity
93%
Altimeter
29.94" Hg
Pressure
1013.92 hPa
Previous

2 hours ago

KBHB 260456Z AUTO 00000KT 10SM OVC085 01/01 A2994 RMK AO2 SLP142 T00110006 FZRANO
Observed
Feb-26 @ 04:56 UTC
Visibility
10 SM
Flight Rules
VFR
Cloud Levels
  • Overcast at 8,500' AGL
Temperature
C / 34°F
Dewpoint
C / 34°F
Humidity
100%
Altimeter
29.94" Hg
Pressure
1013.92 hPa